Terminal Aerodrome Forecast
Issued by NWS

Home | Current Version | Previous Version | Text Only | Print | Product List | Glossary On
Versions: 1 2 3 4 5 6 7 8 9 10 11 12 13 14 15 16 17 18 19
000
FTUS43 KPAH 201120
TAFOWB
TAF
KOWB 201120Z 2012/2112 16003KT P6SM SKC
      TEMPO 2012/2013 5SM BR
     FM201500 19007KT P6SM SCT045
     FM210100 00000KT P6SM SKC=

USA.gov is the U.S. government's official web portal to all federal, state and local government web resources and services.